Neptune Avra — 9HKH6 — position and weather

sailwx.info

Track history (hours):
 
Tides and Currents Weather Stations Pressure Air Temp Water Temp Dewpoint Dewpoint Depression Visibility Wind Speed Wind Dir Waves Ship Positions

Neptune Avra

Last reported at 2015-Feb-26 06:08 UTC. Time now 2015-Feb-27 11:45 UTC.
Position N 41°11' E 004°32'.

Length 155 m; draft 6.6 m.

Type: Cargo ship. MMSI: 248598000.

Date/timePositionNaut miles runAvg speedWind from/ knotsBaromVisibWave heightAir tempDewpointWater temp
2015-Feb-26 06:08N 41°11' E 004°32'10615.2
2015-Feb-25 23:12N 42°53' E 003°56'33 6.7
2015-Feb-25 18:20N 43°24' E 003°43'0 0.0
2015-Feb-25 17:21N 43°24' E 003°43'0 0.0
2015-Feb-25 14:22N 43°24' E 003°43'0 0.0
2015-Feb-25 13:17N 43°24' E 003°43'0 0.0
2015-Feb-25 10:25N 43°24' E 003°43'6 4.9
2015-Feb-25 09:14N 43°18' E 003°45'1314.7
2015-Feb-25 08:21N 43°07' E 003°36'11012.4
2015-Feb-24 23:28N 41°22' E 002°50'1313.9
2015-Feb-24 22:33N 41°13' E 002°39'1514.5
2015-Feb-24 21:33N 41°03' E 002°25'1413.6
2015-Feb-24 20:33N 40°52' E 002°14'1312.7
2015-Feb-24 19:34N 40°40' E 002°13'1212.4
2015-Feb-24 18:33N 40°27' E 002°12'1211.5
2015-Feb-24 17:33N 40°16' E 002°13'1111.3
2015-Feb-24 16:33N 40°04' E 002°15'1111.0
2015-Feb-24 15:33N 39°53' E 002°15'1111.0
2015-Feb-24 14:33N 39°43' E 002°13'10 9.7
2015-Feb-24 13:33N 39°33' E 002°17'1212.0
2015-Feb-24 12:33N 39°26' E 002°29'1010.1
2015-Feb-24 11:33N 39°34' E 002°38'0 0.1
2015-Feb-24 10:32N 39°34' E 002°38'0 0.0
2015-Feb-24 09:32N 39°34' E 002°38'0 0.0
2015-Feb-24 08:31N 39°34' E 002°38'0 0.0
2015-Feb-24 07:31N 39°34' E 002°38'0 0.0
2015-Feb-24 06:33N 39°34' E 002°38'0 0.0
2015-Feb-24 05:33N 39°34' E 002°38'0 0.0
2015-Feb-24 04:32N 39°34' E 002°38'0 0.0
2015-Feb-24 03:32N 39°34' E 002°38'0 0.0
2015-Feb-24 02:31N 39°34' E 002°38'0 0.0
2015-Feb-24 01:31N 39°34' E 002°38'0 0.1
2015-Feb-24 00:33N 39°34' E 002°38'5 5.5
2015-Feb-23 23:33N 39°29' E 002°35'1211.7
2015-Feb-23 22:33N 39°31' E 002°20'1414.2
2015-Feb-23 21:34N 39°42' E 002°10'1414.4
2015-Feb-23 20:33N 39°55' E 002°01'1414.1
2015-Feb-23 19:33N 40°07' E 001°53'1414.1
2015-Feb-23 18:33N 40°20' E 001°44'1414.5
2015-Feb-23 17:33N 40°33' E 001°36'1514.6
2015-Feb-23 16:33N 40°46' E 001°27'41 1.6
2015-Feb-22 14:08N 41°15' E 002°06'18 1.1
2015-Feb-21 21:11N 41°24' E 002°27'3 3.6
2015-Feb-21 20:28N 41°25' E 002°30'1818.0
2015-Feb-21 19:28N 41°35' E 002°50'1817.6
2015-Feb-21 18:28N 41°46' E 003°08'1718.3
2015-Feb-21 17:32N 41°59' E 003°24'2418.2
2015-Feb-21 16:14N 42°16' E 003°46'1418.9
2015-Feb-21 15:29N 42°26' E 003°59'2419.1
2015-Feb-21 14:15N 42°45' E 004°19'1217.9
2015-Feb-21 13:33N 42°55' E 004°29'1817.5
2015-Feb-21 12:30N 43°09' E 004°44'1515.6
2015-Feb-21 11:33N 43°21' E 004°56'5 5.0
2015-Feb-21 10:34N 43°24' E 004°51'0 0.0
2015-Feb-21 09:33N 43°24' E 004°51'0 0.0
2015-Feb-21 08:34N 43°24' E 004°51'0 0.0
2015-Feb-21 07:34N 43°24' E 004°51'0 0.0
2015-Feb-21 06:33N 43°24' E 004°51'0 0.0
2015-Feb-21 05:33N 43°24' E 004°51'3 2.7
2015-Feb-21 04:33N 43°24' E 004°55'10 9.8
2015-Feb-21 03:34N 43°15' E 005°01'8617.0
2015-Feb-20 22:30N 42°05' E 003°54'2217.5
2015-Feb-20 21:16N 41°48' E 003°36'2017.1
2015-Feb-20 20:05N 41°32' E 003°20'1016.7
2015-Feb-20 19:29N 41°24' E 003°12'1717.5
2015-Feb-20 18:32N 41°11' E 002°58'1717.2
2015-Feb-20 17:33N 40°57' E 002°44'1717.3
2015-Feb-20 16:33N 40°44' E 002°30'1817.5
2015-Feb-20 15:33N 40°30' E 002°16'1616.2
2015-Feb-20 14:33N 40°17' E 002°03'1616.4
2015-Feb-20 13:33N 40°04' E 001°50'1817.9
2015-Feb-20 12:33N 39°50' E 001°35'2317.6
2015-Feb-20 11:15N 39°32' E 001°17'1217.3
2015-Feb-20 10:33N 39°22' E 001°08'12016.8
2015-Feb-20 03:24N 37°44' W 000°21'251 6.8
2015-Feb-18 14:33N 36°07' W 005°10'1212.1
2015-Feb-18 13:33N 35°59' W 005°21'8 0.5
2015-Feb-17 22:08N 35°56' W 005°30'915.1
2015-Feb-17 21:33N 36°00' W 005°21'23315.1
2015-Feb-17 06:06N 37°24' W 000°49'1316.7
2015-Feb-17 05:19N 37°32' W 000°37'1316.5
2015-Feb-17 04:33N 37°42' W 000°27'1716.5
2015-Feb-17 03:33N 37°56' W 000°16'9916.5
2015-Feb-16 21:32N 39°21' E 000°50'3516.0
2015-Feb-16 19:22N 39°52' E 001°11'1315.8
2015-Feb-16 18:33N 40°03' E 001°19'1616.5
2015-Feb-16 17:34N 40°18' E 001°29'1716.5
2015-Feb-16 16:33N 40°32' E 001°39'1716.8
2015-Feb-16 15:33N 40°47' E 001°49'1514.8
2015-Feb-16 14:33N 41°00' E 001°59'1515.0
2015-Feb-16 13:33N 41°14' E 002°08'  
Track history (hours):
 
Tides and Currents Weather Stations Pressure Air Temp Water Temp Dewpoint Dewpoint Depression Visibility Wind Speed Wind Dir Waves Ship Positions

Neptune Avra

Last reported at 2015-Feb-26 06:08 UTC. Time now 2015-Feb-27 11:45 UTC.
Position N 41°11' E 004°32'.

Length 155 m; draft 6.6 m.

Type: Cargo ship. MMSI: 248598000.

Date/timePositionNaut miles runAvg speedWind from/ knotsBaromVisibWave heightAir tempDewpointWater temp
2015-Feb-26 06:08N 41°11' E 004°32'10615.2
2015-Feb-25 23:12N 42°53' E 003°56'33 6.7
2015-Feb-25 18:20N 43°24' E 003°43'0 0.0
2015-Feb-25 17:21N 43°24' E 003°43'0 0.0
2015-Feb-25 14:22N 43°24' E 003°43'0 0.0
2015-Feb-25 13:17N 43°24' E 003°43'0 0.0
2015-Feb-25 10:25N 43°24' E 003°43'6 4.9
2015-Feb-25 09:14N 43°18' E 003°45'1314.7
2015-Feb-25 08:21N 43°07' E 003°36'11012.4
2015-Feb-24 23:28N 41°22' E 002°50'1313.9
2015-Feb-24 22:33N 41°13' E 002°39'1514.5
2015-Feb-24 21:33N 41°03' E 002°25'1413.6
2015-Feb-24 20:33N 40°52' E 002°14'1312.7
2015-Feb-24 19:34N 40°40' E 002°13'1212.4
2015-Feb-24 18:33N 40°27' E 002°12'1211.5
2015-Feb-24 17:33N 40°16' E 002°13'1111.3
2015-Feb-24 16:33N 40°04' E 002°15'1111.0
2015-Feb-24 15:33N 39°53' E 002°15'1111.0
2015-Feb-24 14:33N 39°43' E 002°13'10 9.7
2015-Feb-24 13:33N 39°33' E 002°17'1212.0
2015-Feb-24 12:33N 39°26' E 002°29'1010.1
2015-Feb-24 11:33N 39°34' E 002°38'0 0.1
2015-Feb-24 10:32N 39°34' E 002°38'0 0.0
2015-Feb-24 09:32N 39°34' E 002°38'0 0.0
2015-Feb-24 08:31N 39°34' E 002°38'0 0.0
2015-Feb-24 07:31N 39°34' E 002°38'0 0.0
2015-Feb-24 06:33N 39°34' E 002°38'0 0.0
2015-Feb-24 05:33N 39°34' E 002°38'0 0.0
2015-Feb-24 04:32N 39°34' E 002°38'0 0.0
2015-Feb-24 03:32N 39°34' E 002°38'0 0.0
2015-Feb-24 02:31N 39°34' E 002°38'0 0.0
2015-Feb-24 01:31N 39°34' E 002°38'0 0.1
2015-Feb-24 00:33N 39°34' E 002°38'5 5.5
2015-Feb-23 23:33N 39°29' E 002°35'1211.7
2015-Feb-23 22:33N 39°31' E 002°20'1414.2
2015-Feb-23 21:34N 39°42' E 002°10'1414.4
2015-Feb-23 20:33N 39°55' E 002°01'1414.1
2015-Feb-23 19:33N 40°07' E 001°53'1414.1
2015-Feb-23 18:33N 40°20' E 001°44'1414.5
2015-Feb-23 17:33N 40°33' E 001°36'1514.6
2015-Feb-23 16:33N 40°46' E 001°27'41 1.6
2015-Feb-22 14:08N 41°15' E 002°06'18 1.1
2015-Feb-21 21:11N 41°24' E 002°27'3 3.6
2015-Feb-21 20:28N 41°25' E 002°30'1818.0
2015-Feb-21 19:28N 41°35' E 002°50'1817.6
2015-Feb-21 18:28N 41°46' E 003°08'1718.3
2015-Feb-21 17:32N 41°59' E 003°24'2418.2
2015-Feb-21 16:14N 42°16' E 003°46'1418.9
2015-Feb-21 15:29N 42°26' E 003°59'2419.1
2015-Feb-21 14:15N 42°45' E 004°19'1217.9
2015-Feb-21 13:33N 42°55' E 004°29'1817.5
2015-Feb-21 12:30N 43°09' E 004°44'1515.6
2015-Feb-21 11:33N 43°21' E 004°56'5 5.0
2015-Feb-21 10:34N 43°24' E 004°51'0 0.0
2015-Feb-21 09:33N 43°24' E 004°51'0 0.0
2015-Feb-21 08:34N 43°24' E 004°51'0 0.0
2015-Feb-21 07:34N 43°24' E 004°51'0 0.0
2015-Feb-21 06:33N 43°24' E 004°51'0 0.0
2015-Feb-21 05:33N 43°24' E 004°51'3 2.7
2015-Feb-21 04:33N 43°24' E 004°55'10 9.8
2015-Feb-21 03:34N 43°15' E 005°01'8617.0
2015-Feb-20 22:30N 42°05' E 003°54'2217.5
2015-Feb-20 21:16N 41°48' E 003°36'2017.1
2015-Feb-20 20:05N 41°32' E 003°20'1016.7
2015-Feb-20 19:29N 41°24' E 003°12'1717.5
2015-Feb-20 18:32N 41°11' E 002°58'1717.2
2015-Feb-20 17:33N 40°57' E 002°44'1717.3
2015-Feb-20 16:33N 40°44' E 002°30'1817.5
2015-Feb-20 15:33N 40°30' E 002°16'1616.2
2015-Feb-20 14:33N 40°17' E 002°03'1616.4
2015-Feb-20 13:33N 40°04' E 001°50'1817.9
2015-Feb-20 12:33N 39°50' E 001°35'2317.6
2015-Feb-20 11:15N 39°32' E 001°17'1217.3
2015-Feb-20 10:33N 39°22' E 001°08'12016.8
2015-Feb-20 03:24N 37°44' W 000°21'251 6.8
2015-Feb-18 14:33N 36°07' W 005°10'1212.1
2015-Feb-18 13:33N 35°59' W 005°21'8 0.5
2015-Feb-17 22:08N 35°56' W 005°30'915.1
2015-Feb-17 21:33N 36°00' W 005°21'23315.1
2015-Feb-17 06:06N 37°24' W 000°49'1316.7
2015-Feb-17 05:19N 37°32' W 000°37'1316.5
2015-Feb-17 04:33N 37°42' W 000°27'1716.5
2015-Feb-17 03:33N 37°56' W 000°16'9916.5
2015-Feb-16 21:32N 39°21' E 000°50'3516.0
2015-Feb-16 19:22N 39°52' E 001°11'1315.8
2015-Feb-16 18:33N 40°03' E 001°19'1616.5
2015-Feb-16 17:34N 40°18' E 001°29'1716.5
2015-Feb-16 16:33N 40°32' E 001°39'1716.8
2015-Feb-16 15:33N 40°47' E 001°49'1514.8
2015-Feb-16 14:33N 41°00' E 001°59'1515.0
2015-Feb-16 13:33N 41°14' E 002°08'  

Dump ship's entire track history